Time;durP1;ratioP1;P1;durP2;ratioP2;P2;SDS_P1;SDS_P2;PMS_P1;PMS_P2;Temp;Humidity;BMP_temperature;BMP_pressure;BME280_temperature;BME280_humidity;BME280_pressure;Samples;Min_cycle;Max_cycle;Signal;HPM_P1;HPM_P2
2021/12/21 00:01:50;;;;;;;21.73;9.73;;;;;;;-1.37;100.00;102921.44;4690697;30;20063;-75
2021/12/21 00:04:21;;;;;;;23.75;9.93;;;;;;;-1.37;100.00;102911.09;4725333;30;20059;-74
2021/12/21 00:06:50;;;;;;;20.13;9.38;;;;;;;-1.34;100.00;102912.13;4697208;30;20048;-74
2021/12/21 00:09:18;;;;;;;23.45;10.05;;;;;;;-1.34;100.00;102910.47;4734108;30;20059;-74
2021/12/21 00:11:48;;;;;;;27.02;10.35;;;;;;;-1.33;100.00;102911.38;4721774;30;20045;-75
2021/12/21 00:14:30;;;;;;;22.08;10.15;;;;;;;-1.33;100.00;102920.03;4736913;30;20047;-75
2021/12/21 00:22:26;;;;;;;21.42;9.25;;;;;;;-1.38;100.00;102911.91;4711316;30;20248;-74
2021/12/21 00:24:59;;;;;;;18.95;8.77;;;;;;;-1.40;100.00;102907.34;4742675;30;20071;-74
2021/12/21 00:27:28;;;;;;;16.75;8.15;;;;;;;-1.43;100.00;102905.41;4728050;30;20050;-74
2021/12/21 00:29:56;;;;;;;15.50;7.90;;;;;;;-1.46;100.00;102905.16;4738427;30;20086;-75
2021/12/21 00:32:24;;;;;;;17.42;8.48;;;;;;;-1.48;100.00;102904.13;4717452;30;20048;-74
2021/12/21 00:34:53;;;;;;;16.50;7.97;;;;;;;-1.47;100.00;102907.63;4758657;30;20075;-75
2021/12/21 00:37:22;;;;;;;26.13;8.73;;;;;;;-1.47;100.00;102902.47;4762179;30;20091;-75
2021/12/21 00:39:51;;;;;;;20.17;8.02;;;;;;;-1.47;100.00;102905.03;4701138;30;20414;-75
2021/12/21 00:42:20;;;;;;;20.42;8.48;;;;;;;-1.49;100.00;102896.22;4736208;30;20044;-75
2021/12/21 00:44:49;;;;;;;17.85;7.85;;;;;;;-1.49;100.00;102898.81;4731544;30;20044;-75
2021/12/21 00:47:17;;;;;;;15.32;7.78;;;;;;;-1.52;100.00;102894.28;4746434;30;20530;-75
2021/12/21 00:49:48;;;;;;;16.52;7.82;;;;;;;-1.51;100.00;102902.94;4730077;30;20043;-75
2021/12/21 00:52:16;;;;;;;15.25;8.05;;;;;;;-1.52;100.00;102898.56;4706587;30;20407;-75
2021/12/21 00:54:44;;;;;;;14.25;7.40;;;;;;;-1.52;100.00;102898.56;4717235;30;20060;-75
2021/12/21 00:57:13;;;;;;;14.15;7.82;;;;;;;-1.53;100.00;102895.09;4731035;30;20055;-75
2021/12/21 00:59:41;;;;;;;14.18;7.50;;;;;;;-1.53;100.00;102899.34;4730088;30;20047;-75
2021/12/21 01:02:11;;;;;;;17.70;8.15;;;;;;;-1.53;100.00;102897.66;4742668;30;20048;-75
2021/12/21 01:04:45;;;;;;;16.30;8.32;;;;;;;-1.53;100.00;102895.09;4732345;30;20060;-74
2021/12/21 01:07:27;;;;;;;18.00;8.40;;;;;;;-1.55;100.00;102893.13;4741962;30;20336;-74
2021/12/21 01:10:30;;;;;;;15.07;8.00;;;;;;;-1.58;100.00;102889.50;4699062;30;20188;-74
2021/12/21 01:18:05;;;;;;;18.73;9.70;;;;;;;-1.58;100.00;102898.97;4760697;30;20051;-74
2021/12/21 01:20:38;;;;;;;16.27;8.50;;;;;;;-1.59;100.00;102892.88;4752608;30;20064;-74
2021/12/21 01:28:20;;;;;;;13.13;8.85;;;;;;;-1.63;100.00;102885.63;4765813;30;20062;-74
2021/12/21 01:36:19;;;;;;;14.30;7.60;;;;;;;-1.63;100.00;102897.66;4746198;30;20062;-74
2021/12/21 01:39:09;;;;;;;21.50;7.85;;;;;;;-1.63;100.00;102890.78;4730032;30;20407;-74
2021/12/21 01:49:50;;;;;;;21.63;9.75;;;;;;;-1.67;100.00;102883.56;4732138;30;20047;-74
2021/12/21 01:52:22;;;;;;;25.77;11.45;;;;;;;-1.68;100.00;102881.75;4736250;30;20407;-75
2021/12/21 01:54:55;;;;;;;26.85;11.93;;;;;;;-1.68;100.00;102878.25;4743567;30;20058;-74
2021/12/21 01:57:23;;;;;;;25.30;11.32;;;;;;;-1.68;100.00;102875.66;4720336;30;20519;-74
2021/12/21 01:59:52;;;;;;;23.20;11.77;;;;;;;-1.69;100.00;102877.34;4731436;30;20039;-75
2021/12/21 02:02:21;;;;;;;22.73;12.40;;;;;;;-1.70;100.00;102878.13;4725074;30;20055;-74
2021/12/21 02:04:50;;;;;;;19.20;10.50;;;;;;;-1.70;100.00;102869.44;4750325;30;20052;-75
2021/12/21 02:07:19;;;;;;;18.77;10.23;;;;;;;-1.73;100.00;102883.03;4737601;30;20067;-74
2021/12/21 02:09:48;;;;;;;17.20;9.75;;;;;;;-1.77;100.00;102860.28;4724610;30;20052;-74
2021/12/21 02:12:19;;;;;;;17.52;10.10;;;;;;;-1.81;100.00;102860.81;4713475;30;20052;-75
2021/12/21 02:14:57;;;;;;;23.90;8.73;;;;;;;-1.83;100.00;102859.78;4761585;30;20063;-74
2021/12/21 02:20:40;;;;;;;15.13;8.02;;;;;;;-1.87;100.00;102857.66;4747356;30;20071;-74
2021/12/21 02:23:20;;;;;;;14.93;7.43;;;;;;;-1.90;100.00;102858.31;4721762;30;20040;-74
2021/12/21 02:30:56;;;;;;;14.25;7.80;;;;;;;-1.91;100.00;102859.13;4741943;30;20040;-74
2021/12/21 02:33:35;;;;;;;15.50;7.18;;;;;;;-1.91;100.00;102861.69;4730793;30;20047;-74
2021/12/21 02:36:04;;;;;;;16.58;7.15;;;;;;;-1.92;100.00;102852.13;4727646;30;20044;-74
2021/12/21 02:38:33;;;;;;;13.82;7.50;;;;;;;-1.95;100.00;102857.00;4731776;30;20068;-74
2021/12/21 02:41:02;;;;;;;16.67;7.78;;;;;;;-1.94;100.00;102860.53;4715746;30;20280;-74
2021/12/21 02:43:32;;;;;;;15.30;7.38;;;;;;;-1.94;100.00;102855.38;4708861;30;20039;-74
2021/12/21 02:46:04;;;;;;;10.30;6.75;;;;;;;-1.93;100.00;102850.31;4717288;30;20436;-74
2021/12/21 02:48:33;;;;;;;14.88;8.05;;;;;;;-1.92;100.00;102848.66;4723318;30;20048;-74
2021/12/21 02:51:02;;;;;;;12.70;6.85;;;;;;;-1.92;100.00;102846.97;4726581;30;20058;-74
2021/12/21 02:53:31;;;;;;;12.95;6.82;;;;;;;-1.90;100.00;102849.69;4731600;30;20052;-74
2021/12/21 02:56:00;;;;;;;14.27;7.40;;;;;;;-1.90;100.00;102844.50;4749348;30;20671;-74
2021/12/21 02:58:28;;;;;;;13.30;7.15;;;;;;;-1.91;100.00;102847.84;4734332;30;20409;-74
2021/12/21 03:00:57;;;;;;;13.02;7.25;;;;;;;-1.96;100.00;102840.63;4734339;30;20300;-74
2021/12/21 03:03:26;;;;;;;16.67;7.82;;;;;;;-1.97;100.00;102844.00;4739530;30;20047;-74
2021/12/21 03:05:57;;;;;;;14.60;6.93;;;;;;;-1.98;100.00;102844.75;4733959;30;20056;-75
2021/12/21 03:08:37;;;;;;;14.95;6.97;;;;;;;-1.99;100.00;102832.59;4731544;30;20064;-74
2021/12/21 03:11:17;;;;;;;11.15;5.40;;;;;;;-1.99;100.00;102834.28;4741552;30;20055;-74
2021/12/21 03:14:03;;;;;;;12.65;6.75;;;;;;;-1.99;100.00;102835.16;4733227;30;20047;-75
2021/12/21 03:16:37;;;;;;;14.43;7.85;;;;;;;-2.00;100.00;102835.06;4765528;30;20054;-74
2021/12/21 03:19:09;;;;;;;16.33;7.20;;;;;;;-2.05;100.00;102838.94;4742416;30;20056;-74
2021/12/21 03:21:39;;;;;;;15.10;7.43;;;;;;;-2.07;100.00;102836.22;4748395;30;20047;-74
2021/12/21 03:24:09;;;;;;;18.27;7.90;;;;;;;-2.10;100.00;102832.44;4751399;30;20047;-74
2021/12/21 03:26:38;;;;;;;13.30;8.00;;;;;;;-2.09;100.00;102830.00;4731571;30;20526;-73
2021/12/21 03:29:07;;;;;;;16.55;7.30;;;;;;;-2.07;100.00;102833.63;4737956;30;20082;-75
2021/12/21 03:31:35;;;;;;;12.77;6.90;;;;;;;-2.07;100.00;102833.63;4718199;30;20074;-74
2021/12/21 03:34:05;;;;;;;11.63;8.02;;;;;;;-2.06;100.00;102839.69;4733078;30;20079;-74
2021/12/21 03:36:35;;;;;;;13.17;7.43;;;;;;;-2.09;100.00;102827.41;4733646;30;20064;-76
2021/12/21 03:41:35;;;;;;;15.88;8.60;;;;;;;-2.07;100.00;102833.63;4748506;30;20769;-74
2021/12/21 03:44:04;;;;;;;19.55;8.75;;;;;;;-2.07;100.00;102835.31;4726545;30;20040;-74
2021/12/21 03:46:32;;;;;;;16.75;7.75;;;;;;;-2.07;100.00;102833.63;4704223;30;20525;-75
2021/12/21 03:49:14;;;;;;;15.07;8.10;;;;;;;-2.06;100.00;102832.88;4759792;30;20256;-74
2021/12/21 03:51:43;;;;;;;12.68;7.88;;;;;;;-2.06;100.00;102822.53;4742643;30;20398;-74
2021/12/21 03:54:12;;;;;;;18.20;8.02;;;;;;;-2.06;100.00;102827.69;4742452;30;20056;-74
2021/12/21 03:56:42;;;;;;;13.77;7.95;;;;;;;-2.08;100.00;102823.16;4741167;30;20057;-74
2021/12/21 03:59:10;;;;;;;13.18;7.95;;;;;;;-2.09;100.00;102826.53;4728209;30;20173;-74
2021/12/21 04:01:39;;;;;;;12.57;7.60;;;;;;;-2.10;100.00;102817.84;4708176;30;20048;-74
2021/12/21 04:04:08;;;;;;;17.58;7.30;;;;;;;-2.10;100.00;102815.25;4739227;30;20285;-74
2021/12/21 04:06:37;;;;;;;12.90;7.30;;;;;;;-2.13;100.00;102816.72;4746676;30;20048;-75
2021/12/21 04:09:09;;;;;;;16.48;8.10;;;;;;;-2.12;100.00;102816.81;4736499;30;20172;-74
2021/12/21 04:11:38;;;;;;;13.27;7.30;;;;;;;-2.13;100.00;102815.03;4746045;30;20523;-74
2021/12/21 04:14:10;;;;;;;12.27;7.82;;;;;;;-2.13;100.00;102812.44;4738215;30;20048;-74
2021/12/21 04:16:39;;;;;;;13.88;7.85;;;;;;;-2.14;100.00;102809.72;4714323;30;20067;-75
2021/12/21 04:19:08;;;;;;;11.57;7.25;;;;;;;-2.13;100.00;102808.97;4732096;30;20181;-74
2021/12/21 04:21:37;;;;;;;12.68;7.82;;;;;;;-2.14;100.00;102804.53;4744318;30;20062;-74
2021/12/21 04:24:05;;;;;;;16.17;8.63;;;;;;;-2.13;100.00;102811.53;4711514;30;20276;-74
2021/12/21 04:26:34;;;;;;;13.52;7.97;;;;;;;-2.13;100.00;102808.97;4735254;30;20055;-74
2021/12/21 04:29:03;;;;;;;13.90;7.72;;;;;;;-2.12;100.00;102811.66;4708303;30;20052;-74
2021/12/21 04:31:32;;;;;;;12.00;7.97;;;;;;;-2.09;100.00;102816.19;4727617;30;20052;-74
2021/12/21 04:34:01;;;;;;;15.82;8.18;;;;;;;-2.10;100.00;102804.94;4710979;30;20265;-73
2021/12/21 04:36:30;;;;;;;15.02;6.95;;;;;;;-2.10;100.00;102802.34;4729886;30;20056;-74
2021/12/21 04:39:02;;;;;;;12.02;8.20;;;;;;;-2.12;100.00;102803.91;4715876;30;20047;-74
2021/12/21 04:41:31;;;;;;;15.25;8.48;;;;;;;-2.13;100.00;102802.09;4734197;30;20040;-74
2021/12/21 04:44:00;;;;;;;13.98;7.68;;;;;;;-2.13;100.00;102808.97;4758656;30;20063;-74
2021/12/21 04:46:28;;;;;;;14.82;8.13;;;;;;;-2.14;100.00;102815.78;4744316;30;20063;-74
2021/12/21 04:48:57;;;;;;;13.00;7.78;;;;;;;-2.14;100.00;102808.03;4706707;30;20296;-74
2021/12/21 04:51:25;;;;;;;15.65;8.27;;;;;;;-2.16;100.00;102802.72;4738729;30;20067;-74
2021/12/21 04:53:54;;;;;;;12.27;7.47;;;;;;;-2.15;100.00;102806.22;4726848;30;20047;-75
2021/12/21 04:56:22;;;;;;;14.07;7.38;;;;;;;-2.18;100.00;102801.69;4765627;29;20055;-74
2021/12/21 04:58:50;;;;;;;11.68;7.35;;;;;;;-2.17;100.00;102797.44;4714155;30;20059;-74
2021/12/21 05:01:19;;;;;;;17.30;7.88;;;;;;;-2.18;100.00;102798.22;4704544;30;20059;-74
2021/12/21 05:03:47;;;;;;;10.77;7.45;;;;;;;-2.20;100.00;102795.50;4709504;30;20411;-74
2021/12/21 05:06:18;;;;;;;11.60;7.03;;;;;;;-2.20;100.00;102807.50;4724862;30;20063;-74
2021/12/21 05:09:03;;;;;;;12.27;7.05;;;;;;;-2.22;100.00;102801.31;4738897;30;20067;-75
2021/12/21 05:11:35;;;;;;;12.23;7.32;;;;;;;-2.24;100.00;102798.59;4771751;29;20402;-75
2021/12/21 05:14:07;;;;;;;11.80;7.40;;;;;;;-2.27;100.00;102802.56;4742421;30;20608;-75
2021/12/21 05:16:36;;;;;;;9.73;6.63;;;;;;;-2.30;100.00;102803.22;4747380;30;20542;-75
2021/12/21 05:19:05;;;;;;;12.65;6.93;;;;;;;-2.31;100.00;102803.97;4721611;30;20641;-73
2021/12/21 05:21:34;;;;;;;11.50;6.78;;;;;;;-2.31;100.00;102805.69;4731610;30;20051;-73
2021/12/21 05:24:03;;;;;;;11.82;6.97;;;;;;;-2.31;100.00;102800.50;4724173;30;20436;-74
2021/12/21 05:26:32;;;;;;;14.88;7.15;;;;;;;-2.33;100.00;102791.72;4750879;30;20422;-74
2021/12/21 05:29:00;;;;;;;13.90;7.70;;;;;;;-2.34;100.00;102798.56;4726278;30;20370;-74
2021/12/21 05:31:29;;;;;;;12.63;7.40;;;;;;;-2.37;100.00;102788.88;4741478;30;20052;-74
2021/12/21 05:33:58;;;;;;;12.77;7.05;;;;;;;-2.39;100.00;102789.53;4670370;30;20282;-74
2021/12/21 05:36:29;;;;;;;13.18;6.88;;;;;;;-2.41;100.00;102791.97;4732723;30;20047;-74
2021/12/21 05:39:03;;;;;;;13.55;7.40;;;;;;;-2.42;100.00;102786.66;4710721;30;20056;-74
2021/12/21 05:41:50;;;;;;;18.65;8.40;;;;;;;-2.44;100.00;102791.72;4713630;30;20047;-74
2021/12/21 05:44:21;;;;;;;13.38;7.45;;;;;;;-2.47;100.00;102780.22;4749689;30;20056;-74
2021/12/21 05:46:52;;;;;;;12.77;8.07;;;;;;;-2.48;100.00;102780.97;4755237;30;20052;-74
2021/12/21 05:49:20;;;;;;;18.05;8.43;;;;;;;-2.48;100.00;102787.03;4719178;30;20071;-74
2021/12/21 05:51:49;;;;;;;11.85;7.45;;;;;;;-2.45;100.00;102787.31;4743277;30;20051;-74
2021/12/21 05:54:21;;;;;;;12.60;8.15;;;;;;;-2.42;100.00;102800.50;4728735;30;20252;-75
2021/12/21 05:56:50;;;;;;;18.63;7.30;;;;;;;-2.41;100.00;102794.53;4721846;30;20141;-74
2021/12/21 05:59:19;;;;;;;12.02;7.78;;;;;;;-2.41;100.00;102804.88;4725939;30;20086;-74
2021/12/21 06:01:47;;;;;;;9.48;7.53;;;;;;;-2.42;100.00;102797.91;4741713;30;20044;-74
2021/12/21 06:04:18;;;;;;;21.98;8.77;;;;;;;-2.43;100.00;102798.66;4752533;30;20056;-73
2021/12/21 06:06:47;;;;;;;16.08;8.05;;;;;;;-2.45;100.00;102800.22;4728348;30;20064;-74
2021/12/21 06:09:16;;;;;;;12.18;6.90;;;;;;;-2.47;100.00;102803.44;4729823;30;20039;-74
2021/12/21 06:11:54;;;;;;;14.48;8.18;;;;;;;-2.50;100.00;102808.34;4735179;30;20062;-73
2021/12/21 06:23:10;;;;;;;14.68;7.85;;;;;;;-2.50;100.00;102814.38;4700852;30;20061;-74
2021/12/21 06:25:41;;;;;;;9.73;7.18;;;;;;;-2.51;100.00;102806.50;4738354;30;20355;-73
2021/12/21 06:28:11;;;;;;;14.35;8.52;;;;;;;-2.51;100.00;102804.84;4705096;30;20056;-74
2021/12/21 06:30:40;;;;;;;14.95;7.63;;;;;;;-2.50;100.00;102808.34;4741395;30;20525;-74
2021/12/21 06:33:09;;;;;;;12.75;6.97;;;;;;;-2.50;100.00;102811.81;4754196;30;20074;-74
2021/12/21 06:35:38;;;;;;;10.05;6.60;;;;;;;-2.52;100.00;102810.78;4729073;30;20094;-74
2021/12/21 06:38:07;;;;;;;13.45;7.50;;;;;;;-2.54;100.00;102814.91;4728845;30;20044;-74
2021/12/21 06:40:39;;;;;;;8.90;6.80;;;;;;;-2.57;100.00;102807.81;4728118;30;20631;-74
2021/12/21 06:43:12;;;;;;;15.38;7.55;;;;;;;-2.58;100.00;102812.81;4726212;30;20060;-74
2021/12/21 06:45:50;;;;;;;12.18;7.80;;;;;;;-2.60;100.00;102811.78;4714195;30;20040;-75
2021/12/21 06:53:39;;;;;;;13.38;7.72;;;;;;;-2.56;100.00;102811.28;4710770;30;20040;-75
2021/12/21 06:56:08;;;;;;;11.48;7.78;;;;;;;-2.57;100.00;102818.13;4724896;30;20048;-75
2021/12/21 06:58:37;;;;;;;12.35;8.07;;;;;;;-2.57;100.00;102812.03;4728782;30;20048;-75
2021/12/21 07:01:06;;;;;;;15.32;8.45;;;;;;;-2.56;100.00;102813.88;4726007;30;20071;-76
2021/12/21 07:03:38;;;;;;;12.82;7.38;;;;;;;-2.58;100.00;102812.81;4754797;30;20529;-76
2021/12/21 07:06:07;;;;;;;12.63;7.75;;;;;;;-2.59;100.00;102817.09;4709323;30;20056;-74
2021/12/21 07:08:46;;;;;;;12.85;8.25;;;;;;;-2.59;100.00;102823.91;4697746;30;20044;-76
2021/12/21 07:19:21;;;;;;;18.50;9.30;;;;;;;-2.62;100.00;102821.06;4730313;30;20185;-74
2021/12/21 07:21:52;;;;;;;;;;;;;;;-2.67;100.00;102820.66;4714148;30;20056;-74
2021/12/21 07:24:24;;;;;;;13.23;7.70;;;;;;;-2.73;100.00;102812.38;4739154;30;20423;-76
2021/12/21 07:26:55;;;;;;;11.35;7.85;;;;;;;-2.75;100.00;102819.97;4737235;30;20052;-74
2021/12/21 07:29:24;;;;;;;9.98;7.43;;;;;;;-2.76;100.00;102825.94;4744144;30;20055;-75
2021/12/21 07:31:53;;;;;;;11.15;8.23;;;;;;;-2.76;100.00;102817.25;4764477;30;20934;-75
2021/12/21 07:34:22;;;;;;;14.32;7.45;;;;;;;-2.75;100.00;102816.50;4764210;29;20387;-74
2021/12/21 07:36:50;;;;;;;12.52;7.82;;;;;;;-2.72;100.00;102829.69;4729660;30;20391;-75
2021/12/21 07:39:19;;;;;;;14.65;7.85;;;;;;;-2.70;100.00;102829.78;4689513;30;20074;-74
2021/12/21 07:42:08;;;;;;;15.38;7.22;;;;;;;-2.70;100.00;102825.56;4729250;30;20422;-76
2021/12/21 07:44:36;;;;;;;15.77;9.05;;;;;;;-2.69;100.00;102829.03;4726790;30;20391;-75
2021/12/21 07:47:05;;;;;;;11.77;7.93;;;;;;;-2.69;100.00;102817.03;4743622;30;20044;-74
2021/12/21 07:49:34;;;;;;;9.65;7.57;;;;;;;-2.68;100.00;102823.13;4759250;30;20047;-74
2021/12/21 07:52:07;;;;;;;13.00;7.22;;;;;;;-2.67;100.00;102822.34;4714671;30;20406;-74
2021/12/21 07:54:36;;;;;;;12.13;8.30;;;;;;;-2.67;100.00;102827.50;4724067;30;20063;-74
2021/12/21 07:57:08;;;;;;;11.52;7.03;;;;;;;-2.65;100.00;102824.28;4707905;30;20059;-74
2021/12/21 07:59:39;;;;;;;11.77;8.27;;;;;;;-2.66;100.00;102822.47;4763477;30;20048;-74
2021/12/21 08:02:12;;;;;;;14.45;8.10;;;;;;;-2.66;100.00;102829.31;4703983;30;20173;-74
2021/12/21 08:04:43;;;;;;;18.08;9.05;;;;;;;-2.67;100.00;102822.34;4723356;30;20058;-74
2021/12/21 08:07:16;;;;;;;10.80;7.85;;;;;;;-2.70;100.00;102816.91;4733076;30;20046;-74
2021/12/21 08:09:48;;;;;;;14.55;7.75;;;;;;;-2.70;100.00;102823.00;4719125;30;20165;-74
2021/12/21 08:12:17;;;;;;;9.65;7.10;;;;;;;-2.67;100.00;102830.97;4710722;30;20043;-73
2021/12/21 08:14:49;;;;;;;11.95;6.95;;;;;;;-2.67;100.00;102825.81;4719286;30;20055;-73
2021/12/21 08:17:19;;;;;;;14.25;8.18;;;;;;;-2.65;100.00;102819.09;4713200;30;20044;-73
2021/12/21 08:19:50;;;;;;;11.50;7.38;;;;;;;-2.63;100.00;102819.25;4734475;30;20264;-73
2021/12/21 08:22:19;;;;;;;15.90;8.38;;;;;;;-2.62;100.00;102821.06;4719358;30;20067;-74
2021/12/21 08:24:48;;;;;;;11.90;7.93;;;;;;;-2.60;100.00;102816.94;4745656;30;21210;-73
2021/12/21 08:27:16;;;;;;;15.77;8.00;;;;;;;-2.58;100.00;102825.72;4727590;30;20403;-74
2021/12/21 08:29:45;;;;;;;15.02;8.23;;;;;;;-2.54;100.00;102820.06;4721463;30;20058;-77
2021/12/21 08:32:14;;;;;;;19.60;8.10;;;;;;;-2.52;100.00;102807.28;4719729;30;20395;-74
2021/12/21 08:34:42;;;;;;;10.10;7.63;;;;;;;-2.49;100.00;102810.16;4729129;30;20533;-74
2021/12/21 08:37:14;;;;;;;16.38;8.02;;;;;;;-2.47;100.00;102809.50;4736718;30;20059;-75
2021/12/21 08:39:42;;;;;;;14.05;8.27;;;;;;;-2.44;100.00;102801.13;4718550;30;20331;-75
2021/12/21 08:42:14;;;;;;;15.50;8.63;;;;;;;-2.42;100.00;102802.16;4705955;30;20047;-74
2021/12/21 08:44:46;;;;;;;15.95;9.10;;;;;;;-2.40;100.00;102806.69;4739015;29;20056;-74
2021/12/21 08:47:15;;;;;;;15.88;8.48;;;;;;;-2.37;100.00;102806.03;4726697;30;20438;-74
2021/12/21 08:49:46;;;;;;;22.17;9.40;;;;;;;-2.33;100.00;102802.94;4723069;30;20241;-74
2021/12/21 08:52:15;;;;;;;17.90;9.75;;;;;;;-2.32;100.00;102807.34;4737919;30;20506;-74
2021/12/21 08:54:44;;;;;;;19.55;9.27;;;;;;;-2.27;100.00;102812.91;4709897;30;20719;-75
2021/12/21 08:57:19;;;;;;;14.98;8.82;;;;;;;-2.24;100.00;102813.19;4728220;30;20722;-75
2021/12/21 08:59:50;;;;;;;14.48;10.40;;;;;;;-2.19;100.00;102812.81;4708156;30;20251;-75
2021/12/21 09:02:18;;;;;;;13.50;9.50;;;;;;;-2.16;100.00;102818.22;4759980;30;20056;-75
2021/12/21 09:04:49;;;;;;;13.13;9.40;;;;;;;-2.12;100.00;102814.22;4715035;30;20591;-75
2021/12/21 09:07:17;;;;;;;16.38;9.20;;;;;;;-2.05;100.00;102821.75;4723368;30;20058;-75
2021/12/21 09:09:46;;;;;;;14.85;9.32;;;;;;;-2.02;100.00;102827.19;4697316;30;20770;-76
2021/12/21 09:12:14;;;;;;;12.80;9.15;;;;;;;-1.98;100.00;102818.91;4716209;30;20062;-75
2021/12/21 09:14:43;;;;;;;13.65;9.57;;;;;;;-1.93;100.00;102815.81;4690168;30;20154;-75
2021/12/21 09:17:12;;;;;;;16.35;9.70;;;;;;;-1.88;100.00;102818.00;4729548;30;20051;-75
2021/12/21 09:19:40;;;;;;;14.93;9.65;;;;;;;-1.81;100.00;102817.75;4749062;29;20047;-75
2021/12/21 09:22:09;;;;;;;17.42;9.93;;;;;;;-1.73;100.00;102822.69;4731574;30;20059;-75
2021/12/21 09:24:37;;;;;;;17.98;11.15;;;;;;;-1.66;100.00;102822.44;4696600;30;20058;-74
2021/12/21 09:27:05;;;;;;;16.88;9.70;;;;;;;-1.60;100.00;102830.69;4735836;30;20048;-74
2021/12/21 09:29:34;;;;;;;14.82;9.27;;;;;;;-1.53;100.00;102832.09;4687761;30;21712;-74
2021/12/21 09:32:03;;;;;;;14.30;9.15;;;;;;;-1.45;100.00;102833.66;4710039;30;20050;-74
2021/12/21 09:34:31;;;;;;;13.15;9.38;;;;;;;-1.39;100.00;102836.75;4744479;30;20051;-75
2021/12/21 09:37:00;;;;;;;13.13;8.40;;;;;;;-1.32;100.00;102836.50;4729432;30;21430;-74
2021/12/21 09:39:28;;;;;;;10.32;7.97;;;;;;;-1.26;100.00;102823.16;4709113;30;20052;-74
2021/12/21 09:41:57;;;;;;;18.35;8.95;;;;;;;-1.20;100.00;102834.91;4698503;30;20439;-74
2021/12/21 09:44:25;;;;;;;17.20;8.25;;;;;;;-1.12;100.00;102839.81;4702694;30;20730;-74
2021/12/21 09:46:57;;;;;;;17.75;9.63;;;;;;;-1.09;100.00;102832.31;4698184;30;20055;-74
2021/12/21 09:49:25;;;;;;;15.40;9.00;;;;;;;-1.04;100.00;102838.75;4707525;30;20044;-75
2021/12/21 09:51:57;;;;;;;13.07;8.50;;;;;;;-1.00;100.00;102836.56;4697346;30;20407;-74
2021/12/21 09:54:26;;;;;;;17.85;10.23;;;;;;;-0.94;100.00;102836.16;4723303;30;20522;-75
2021/12/21 09:56:55;;;;;;;14.35;9.05;;;;;;;-0.88;100.00;102825.41;4728445;30;20068;-74
2021/12/21 09:59:25;;;;;;;16.17;9.38;;;;;;;-0.84;100.00;102833.53;4716633;30;20646;-75
2021/12/21 10:01:56;;;;;;;15.53;8.90;;;;;;;-0.79;100.00;102827.06;4695776;30;20466;-75
2021/12/21 10:04:25;;;;;;;14.52;8.82;;;;;;;-0.72;100.00;102825.84;4735772;30;20048;-74
2021/12/21 10:07:02;;;;;;;14.65;8.35;;;;;;;-0.66;100.00;102838.38;4704036;30;20062;-74
2021/12/21 10:09:35;;;;;;;17.88;8.40;;;;;;;-0.57;100.00;102828.75;4711759;30;20133;-74
2021/12/21 10:12:06;;;;;;;13.95;8.02;;;;;;;-0.51;100.00;102829.28;4740110;30;20055;-74
2021/12/21 10:14:36;;;;;;;15.20;8.13;;;;;;;-0.45;100.00;102832.34;4753998;30;20052;-74
2021/12/21 10:17:11;;;;;;;12.65;7.82;;;;;;;-0.36;100.00;102831.25;4685243;30;20450;-74
2021/12/21 10:19:43;;;;;;;14.05;8.07;;;;;;;-0.27;100.00;102832.88;4738611;30;20044;-75
2021/12/21 10:22:14;;;;;;;13.93;7.85;;;;;;;-0.20;100.00;102829.09;4719023;30;20271;-74
2021/12/21 10:24:46;;;;;;;10.43;7.60;;;;;;;-0.11;100.00;102831.53;4731142;30;20525;-74
2021/12/21 10:27:18;;;;;;;17.10;8.75;;;;;;;-0.05;100.00;102814.75;4718609;30;20253;-74
2021/12/21 10:29:56;;;;;;;15.38;8.20;;;;;;;0.03;100.00;102824.81;4756981;30;20056;-74
2021/12/21 10:32:27;;;;;;;14.88;7.78;;;;;;;0.11;100.00;102818.53;4712878;30;25114;-74
2021/12/21 10:35:06;;;;;;;16.60;8.02;;;;;;;0.19;100.00;102810.56;4719780;30;20064;-75
2021/12/21 10:37:38;;;;;;;14.82;8.20;;;;;;;0.28;100.00;102818.13;4698621;30;20071;-75
2021/12/21 10:40:17;;;;;;;14.38;7.53;;;;;;;0.36;100.00;102803.19;4734665;30;20070;-74
2021/12/21 10:42:51;;;;;;;13.27;7.15;;;;;;;0.44;100.00;102808.94;4756924;30;20048;-74
2021/12/21 10:45:41;;;;;;;14.77;6.88;;;;;;;0.51;100.00;102801.75;4705906;30;20470;-74
2021/12/21 10:48:17;;;;;;;11.95;7.75;;;;;;;0.59;100.00;102797.13;4707154;30;20225;-74
2021/12/21 10:50:49;;;;;;;15.02;7.50;;;;;;;0.67;100.00;102803.78;4740629;30;20522;-74
2021/12/21 10:53:23;;;;;;;9.85;5.97;;;;;;;0.71;100.00;102803.22;4727820;30;20051;-74
2021/12/21 10:56:01;;;;;;;11.93;6.35;;;;;;;0.80;100.00;102802.13;4740272;30;20052;-74
2021/12/21 10:58:31;;;;;;;16.73;7.82;;;;;;;0.85;100.00;102793.88;4746135;30;20059;-74
2021/12/21 11:01:04;;;;;;;10.55;7.30;;;;;;;0.91;100.00;102794.31;4728691;30;20062;-74
2021/12/21 11:03:45;;;;;;;16.52;7.70;;;;;;;0.96;100.00;102787.78;4715762;30;20052;-80
2021/12/21 11:06:23;;;;;;;8.98;6.47;;;;;;;1.02;100.00;102800.31;4730477;30;20466;-75
2021/12/21 11:08:54;;;;;;;12.50;6.45;;;;;;;1.09;100.00;102794.75;4748389;30;20054;-75
2021/12/21 11:11:29;;;;;;;14.23;8.15;;;;;;;1.12;100.00;102786.31;4732366;30;20247;-75
2021/12/21 11:14:03;;;;;;;9.60;6.60;;;;;;;1.16;100.00;102775.34;4732440;30;20052;-75
2021/12/21 11:16:41;;;;;;;19.00;7.03;;;;;;;1.22;100.00;102778.38;4729914;30;20070;-75
2021/12/21 11:19:12;;;;;;;14.55;7.03;;;;;;;1.26;100.00;102772.59;4722111;30;20212;-76
2021/12/21 11:21:42;;;;;;;15.50;6.82;;;;;;;1.29;100.00;102772.84;4724035;30;20043;-74
2021/12/21 11:24:14;;;;;;;14.32;7.28;;;;;;;1.34;100.00;102776.66;4713266;30;20675;-75
2021/12/21 11:26:44;;;;;;;18.83;7.70;;;;;;;1.40;100.00;102778.81;4742079;30;20052;-75
2021/12/21 11:29:14;;;;;;;;;;;;;;;1.44;100.00;102785.13;4738011;30;20056;-74
2021/12/21 11:31:48;;;;;;;12.82;6.72;;;;;;;1.48;100.00;102777.66;4758867;29;20430;-75
2021/12/21 11:34:20;;;;;;;10.48;6.93;;;;;;;1.54;100.00;102770.28;4711270;30;20269;-76
2021/12/21 11:39:41;;;;;;;12.02;7.03;;;;;;;1.62;100.00;102763.03;4742432;30;20506;-75
2021/12/21 11:42:23;;;;;;;10.95;6.88;;;;;;;1.65;100.00;102760.66;4725643;30;20169;-75
2021/12/21 11:45:03;;;;;;;10.68;6.65;;;;;;;1.68;100.00;102760.88;4721971;30;20062;-75
2021/12/21 11:47:37;;;;;;;11.32;6.40;;;;;;;1.73;100.00;102762.06;4723827;30;20071;-75
2021/12/21 11:50:09;;;;;;;16.30;6.80;;;;;;;1.78;100.00;102761.50;4701314;30;20497;-75
2021/12/21 11:52:54;;;;;;;10.90;6.47;;;;;;;1.80;100.00;102753.03;4738916;30;20062;-76
2021/12/21 11:55:27;;;;;;;11.88;6.18;;;;;;;1.83;100.00;102753.22;4738228;30;20064;-75
2021/12/21 11:57:58;;;;;;;9.13;6.00;;;;;;;1.88;100.00;102746.63;4730914;30;20645;-76
2021/12/21 12:00:45;;;;;;;11.18;6.32;;;;;;;1.90;100.00;102744.16;4755377;30;20043;-76
2021/12/21 12:03:20;;;;;;;13.85;6.40;;;;;;;1.94;100.00;102746.16;4746069;30;20174;-75
2021/12/21 12:05:54;;;;;;;11.13;7.30;;;;;;;1.95;100.00;102743.66;4704711;30;21129;-74
2021/12/21 12:08:26;;;;;;;10.38;7.30;;;;;;;1.98;100.00;102742.06;4769509;30;20055;-74
2021/12/21 12:10:59;;;;;;;12.32;6.90;;;;;;;1.99;100.00;102733.50;4743172;30;23669;-74
2021/12/21 12:13:43;;;;;;;10.55;5.95;;;;;;;2.01;100.00;102729.28;4741416;30;20063;-74
2021/12/21 12:16:14;;;;;;;12.00;6.30;;;;;;;2.01;100.00;102732.78;4714521;30;20043;-74
2021/12/21 12:18:48;;;;;;;9.80;6.18;;;;;;;2.01;100.00;102729.28;4730190;30;20055;-74
2021/12/21 12:21:21;;;;;;;10.93;6.43;;;;;;;2.02;100.00;102720.69;4732613;30;20043;-74
2021/12/21 12:23:56;;;;;;;9.70;6.75;;;;;;;2.01;100.00;102724.09;4734272;30;20059;-74
2021/12/21 12:26:29;;;;;;;14.35;7.18;;;;;;;2.00;100.00;102720.56;4733643;30;20546;-74
2021/12/21 12:29:19;;;;;;;11.80;6.75;;;;;;;2.00;100.00;102725.78;4707620;30;20264;-75
2021/12/21 12:32:07;;;;;;;10.82;6.50;;;;;;;1.98;100.00;102714.38;4718998;30;20296;-74
2021/12/21 12:34:38;;;;;;;11.07;6.80;;;;;;;1.99;100.00;102721.38;4711351;30;20059;-74
2021/12/21 12:37:14;;;;;;;;;;;;;;;1.98;100.00;102726.47;4701079;30;20055;-73